Time;durP1;ratioP1;P1;durP2;ratioP2;P2;SDS_P1;SDS_P2;PMS_P1;PMS_P2;Temp;Humidity;BMP_temperature;BMP_pressure;BME280_temperature;BME280_humidity;BME280_pressure;Samples;Min_cycle;Max_cycle;Signal;HPM_P1;HPM_P2
2021/09/11 05:01:33;;;;;;;5.15;2.88;;;;;;;17.32;59.97;95044.28;5630174;23;20058;-86
2021/09/11 05:03:58;;;;;;;3.88;2.78;;;;;;;18.28;56.42;95044.81;4923558;29;20038;-87
2021/09/11 05:06:23;;;;;;;5.35;2.65;;;;;;;18.04;56.84;95048.25;4932530;29;20559;-83
2021/09/11 05:08:49;;;;;;;7.60;2.97;;;;;;;19.61;53.40;95042.31;4931350;29;20035;-82
2021/09/11 05:11:14;;;;;;;7.22;2.60;;;;;;;20.79;49.84;95041.19;4901237;29;20031;-84
2021/09/11 05:13:40;;;;;;;4.65;2.42;;;;;;;22.00;46.86;95046.16;4931139;29;20034;-81
2021/09/11 05:16:05;;;;;;;4.07;2.25;;;;;;;22.01;46.51;95041.69;4917053;29;20031;-83
2021/09/11 05:18:32;;;;;;;4.80;2.50;;;;;;;22.57;45.12;95035.44;4916704;29;20090;-85
2021/09/11 05:21:05;;;;;;;4.32;2.67;;;;;;;23.17;43.68;95038.09;4916681;29;20494;-86
2021/09/11 05:23:31;;;;;;;5.40;2.97;;;;;;;21.62;47.46;95037.28;4950092;29;20031;-85
2021/09/11 05:25:58;;;;;;;3.90;2.83;;;;;;;23.93;42.76;95036.25;4915524;29;20034;-84
2021/09/11 05:28:24;;;;;;;27.05;5.78;;;;;;;22.92;45.55;95045.69;4948631;29;20571;-83
2021/09/11 05:30:49;;;;;;;4.43;2.70;;;;;;;23.09;46.58;95039.31;4948560;29;20031;-84
2021/09/11 05:33:14;;;;;;;4.47;2.75;;;;;;;22.61;46.99;95047.09;4932822;29;20086;-83
2021/09/11 05:35:40;;;;;;;3.63;2.45;;;;;;;23.48;44.13;95032.13;4931388;29;20035;-83
2021/09/11 05:38:06;;;;;;;2.75;2.55;;;;;;;24.51;42.28;95043.34;4921843;29;20749;-84
2021/09/11 05:40:31;;;;;;;3.17;2.70;;;;;;;25.44;40.03;95031.09;4926658;29;20040;-84
2021/09/11 05:42:57;;;;;;;3.17;2.30;;;;;;;26.02;38.46;95035.22;4915355;29;20031;-86
2021/09/11 05:45:22;;;;;;;2.78;2.53;;;;;;;24.78;41.27;95046.72;4949632;29;20031;-84
2021/09/11 05:47:48;;;;;;;3.72;3.10;;;;;;;25.32;39.79;95034.00;4948626;29;20477;-85
2021/09/11 05:50:13;;;;;;;3.63;3.08;;;;;;;24.08;41.93;95031.88;4901003;29;20086;-85
2021/09/11 05:52:39;;;;;;;3.50;3.08;;;;;;;25.21;40.29;95035.00;4915388;29;20630;-84
2021/09/11 05:55:05;;;;;;;3.97;3.47;;;;;;;24.78;41.88;95032.66;4932261;29;20031;-86
2021/09/11 05:57:30;;;;;;;4.88;3.30;;;;;;;20.69;50.48;95037.53;4932313;29;20019;-86
2021/09/11 05:59:56;;;;;;;3.40;3.00;;;;;;;20.05;52.06;95041.03;4948826;29;20032;-85
2021/09/11 06:02:23;;;;;;;5.38;3.00;;;;;;;19.83;53.03;95036.31;4931656;29;20556;-85
2021/09/11 06:04:48;;;;;;;3.92;3.03;;;;;;;19.31;54.37;95034.41;4915111;29;20488;-85
2021/09/11 06:07:14;;;;;;;5.55;3.03;;;;;;;19.81;53.32;95034.97;4916634;29;20046;-85
2021/09/11 06:09:39;;;;;;;4.10;3.80;;;;;;;19.78;52.96;95030.94;4930751;29;20102;-85
2021/09/11 06:12:09;;;;;;;2.78;2.58;;;;;;;20.90;52.11;95032.44;4932860;28;20073;-86
2021/09/11 06:14:35;;;;;;;3.08;2.85;;;;;;;20.79;49.47;95030.66;4935220;29;20035;-84
2021/09/11 06:17:00;;;;;;;3.47;2.80;;;;;;;20.63;50.68;95038.47;4935496;29;20386;-83
2021/09/11 06:19:26;;;;;;;7.13;2.95;;;;;;;21.62;47.91;95034.63;4952958;29;20110;-84
2021/09/11 06:21:51;;;;;;;2.65;2.42;;;;;;;26.08;39.95;95029.66;4934582;29;20039;-85
2021/09/11 06:24:17;;;;;;;5.38;2.60;;;;;;;29.69;33.14;95028.75;4936009;29;20031;-85
2021/09/11 06:26:42;;;;;;;3.15;2.50;;;;;;;30.04;32.18;95034.66;4933832;29;20054;-84
2021/09/11 06:29:08;;;;;;;3.83;2.72;;;;;;;30.37;31.61;95022.91;4952955;29;20035;-84
2021/09/11 06:31:33;;;;;;;4.18;2.78;;;;;;;30.43;31.51;95012.97;4947832;28;20496;-85
2021/09/11 06:33:59;;;;;;;2.78;2.58;;;;;;;30.52;30.59;95025.38;4943980;29;20032;-83
2021/09/11 06:36:24;;;;;;;3.33;3.00;;;;;;;29.89;30.95;95021.53;4900873;29;20023;-85
2021/09/11 06:38:49;;;;;;;3.35;3.00;;;;;;;30.80;30.32;95015.50;4932559;29;20082;-84
2021/09/11 06:41:15;;;;;;;3.58;2.63;;;;;;;32.57;28.28;95019.75;4900568;29;20053;-84
2021/09/11 06:43:40;;;;;;;5.30;2.85;;;;;;;32.65;28.01;95010.97;4899034;29;20028;-84
2021/09/11 06:46:06;;;;;;;3.22;2.50;;;;;;;32.65;27.61;95017.16;4900690;29;20032;-83
2021/09/11 06:48:33;;;;;;;5.78;2.50;;;;;;;33.41;27.03;95025.84;4898949;29;20091;-84
2021/09/11 06:50:58;;;;;;;2.58;2.38;;;;;;;32.70;27.77;95019.69;4901310;29;20545;-85
2021/09/11 06:53:23;;;;;;;4.60;2.55;;;;;;;33.10;27.32;95025.91;4932125;29;20028;-84
2021/09/11 06:55:50;;;;;;;3.67;2.47;;;;;;;32.05;28.23;95022.06;4900060;29;20035;-83
2021/09/11 06:58:16;;;;;;;7.10;2.90;;;;;;;30.83;28.89;95014.91;4900817;29;20485;-82
2021/09/11 07:00:41;;;;;;;6.25;2.38;;;;;;;31.81;28.80;95024.22;4882851;29;20062;-82
2021/09/11 07:03:07;;;;;;;4.35;2.38;;;;;;;32.42;27.27;95015.56;4931303;29;20035;-83
2021/09/11 07:05:32;;;;;;;6.72;2.47;;;;;;;33.27;27.24;95019.78;4933557;29;20027;-83
2021/09/11 07:07:58;;;;;;;6.15;2.45;;;;;;;28.70;31.25;95016.28;4934803;29;20035;-82
2021/09/11 07:10:23;;;;;;;6.20;2.65;;;;;;;24.67;39.55;95018.53;4917838;29;20027;-86
2021/09/11 07:12:49;;;;;;;2.70;2.45;;;;;;;24.69;39.41;95020.97;4952009;29;20034;-83
2021/09/11 07:15:14;;;;;;;3.35;2.35;;;;;;;23.68;40.86;95006.91;4918445;29;20035;-83
2021/09/11 07:17:40;;;;;;;4.13;2.45;;;;;;;24.56;40.12;95009.72;4917804;29;20027;-83
2021/09/11 07:20:07;;;;;;;5.10;2.58;;;;;;;24.14;41.36;95017.66;4919332;29;20038;-84
2021/09/11 07:22:32;;;;;;;2.80;2.42;;;;;;;23.21;41.20;95009.31;4933483;29;20114;-82
2021/09/11 07:24:57;;;;;;;6.45;2.30;;;;;;;23.59;41.25;95011.88;4902336;29;20162;-83
2021/09/11 07:27:23;;;;;;;3.40;2.38;;;;;;;23.20;42.39;95005.88;4950547;29;20027;-84
2021/09/11 07:29:48;;;;;;;5.90;2.65;;;;;;;23.44;41.97;95011.69;4918616;29;20046;-83
2021/09/11 07:32:14;;;;;;;3.20;2.30;;;;;;;23.80;41.94;95011.00;4932631;29;20035;-83
2021/09/11 07:34:40;;;;;;;2.75;2.35;;;;;;;23.65;41.23;95004.75;4942009;29;20039;-83
2021/09/11 07:37:05;;;;;;;5.10;2.38;;;;;;;23.75;42.32;95003.03;4915404;29;20034;-87
2021/09/11 07:39:31;;;;;;;3.75;2.60;;;;;;;24.11;41.99;95007.56;4914698;29;20030;-84
2021/09/11 07:41:57;;;;;;;3.30;2.35;;;;;;;23.77;42.57;95000.91;4899701;29;20038;-81
2021/09/11 07:44:22;;;;;;;2.72;2.25;;;;;;;23.51;42.22;95005.16;4898265;29;20038;-81
2021/09/11 07:46:48;;;;;;;3.47;2.47;;;;;;;23.49;42.69;94993.25;4932298;29;20497;-84
2021/09/11 07:49:13;;;;;;;5.72;2.33;;;;;;;23.26;43.65;94996.94;4913678;29;20054;-84
2021/09/11 07:51:38;;;;;;;2.42;2.22;;;;;;;23.63;42.67;94997.88;4915401;29;20358;-83
2021/09/11 07:54:04;;;;;;;5.78;2.50;;;;;;;23.44;42.83;94993.97;4931457;29;20024;-86
2021/09/11 07:56:29;;;;;;;4.38;2.50;;;;;;;23.20;45.21;94994.50;4899335;29;20482;-85
2021/09/11 07:58:55;;;;;;;2.50;2.25;;;;;;;23.54;43.00;94996.72;4932384;29;20036;-83
2021/09/11 08:01:20;;;;;;;3.72;2.17;;;;;;;23.54;42.21;94990.63;4919801;29;20054;-83
2021/09/11 08:03:46;;;;;;;2.50;2.30;;;;;;;22.28;43.68;94992.50;4933823;29;20024;-83
2021/09/11 08:06:11;;;;;;;4.97;2.35;;;;;;;23.30;42.75;94998.06;4932068;29;20038;-81
2021/09/11 08:08:37;;;;;;;7.18;2.38;;;;;;;23.92;40.55;94994.97;4933930;29;20031;-81
2021/09/11 08:11:03;;;;;;;3.70;2.15;;;;;;;23.94;41.67;94996.31;4932241;29;20103;-81
2021/09/11 08:13:28;;;;;;;3.88;2.88;;;;;;;23.45;40.60;94989.50;4933731;29;20031;-80
2021/09/11 08:15:54;;;;;;;3.95;2.30;;;;;;;22.95;42.86;94990.53;4917452;29;20042;-81
2021/09/11 08:18:19;;;;;;;3.33;2.50;;;;;;;23.03;43.08;94981.34;4916730;29;20031;-81
2021/09/11 08:20:45;;;;;;;8.07;2.53;;;;;;;23.44;42.49;94982.59;4933694;29;20042;-82
2021/09/11 08:23:10;;;;;;;2.35;2.13;;;;;;;23.63;42.35;94976.72;4931541;29;20059;-83
2021/09/11 08:25:35;;;;;;;4.72;2.25;;;;;;;24.10;42.39;94973.41;4933689;29;20082;-82
2021/09/11 08:28:01;;;;;;;1.80;1.70;;;;;;;23.75;41.88;94973.13;4916113;29;20031;-82
2021/09/11 08:30:26;;;;;;;5.07;2.38;;;;;;;23.25;43.32;94971.53;4933696;29;20420;-87
2021/09/11 08:32:52;;;;;;;2.97;2.05;;;;;;;24.56;41.41;94964.69;4916071;29;20073;-85
2021/09/11 08:35:18;;;;;;;3.28;2.20;;;;;;;24.63;40.97;94956.53;4932657;28;20042;-82
2021/09/11 08:37:44;;;;;;;4.72;2.35;;;;;;;23.84;41.84;94961.03;4932884;29;20699;-87
2021/09/11 08:40:10;;;;;;;5.43;2.30;;;;;;;24.50;40.10;94959.63;4931439;29;20126;-82
2021/09/11 08:42:35;;;;;;;5.90;1.90;;;;;;;24.62;39.18;94953.09;4917565;29;20023;-83
2021/09/11 08:45:01;;;;;;;2.58;2.10;;;;;;;24.99;37.87;94953.00;4915649;29;20027;-82
2021/09/11 08:47:26;;;;;;;3.20;2.05;;;;;;;24.85;38.68;94949.22;4917382;29;20035;-85
2021/09/11 08:49:52;;;;;;;2.90;1.85;;;;;;;25.05;37.21;94946.66;4916320;29;20027;-83
2021/09/11 08:52:17;;;;;;;4.18;1.92;;;;;;;24.92;36.92;94941.03;4917226;29;20036;-82
2021/09/11 08:54:43;;;;;;;4.10;2.10;;;;;;;25.03;38.33;94947.97;4932305;29;20038;-81
2021/09/11 08:57:25;;;;;;;2.83;1.67;;;;;;;24.79;36.95;94933.56;4949409;29;20031;-83
2021/09/11 08:59:51;;;;;;;10.20;5.63;;;;;;;25.47;36.67;94943.03;4901757;29;20121;-82
2021/09/11 09:02:17;;;;;;;10.82;7.55;;;;;;;25.76;36.29;94938.03;4908254;29;20043;-84
2021/09/11 09:04:47;;;;;;;6.43;2.22;;;;;;;25.30;35.89;94937.94;4948882;28;20058;-84
2021/09/11 09:07:39;;;;;;;5.45;2.00;;;;;;;24.67;36.27;94933.75;4946774;29;20090;-85
2021/09/11 09:10:09;;;;;;;4.57;1.90;;;;;;;25.63;36.13;94924.25;4914039;29;20348;-85
2021/09/11 09:12:37;;;;;;;2.72;1.77;;;;;;;25.91;36.07;94924.78;4938938;29;20102;-84
2021/09/11 09:15:19;;;;;;;12.38;2.10;;;;;;;25.83;35.39;94920.00;4947823;29;20050;-84
2021/09/11 09:17:48;;;;;;;2.20;1.80;;;;;;;23.76;35.91;94913.88;4948058;29;20038;-86
2021/09/11 09:20:15;;;;;;;;;;;;;;;25.60;34.81;94916.81;4948390;28;20035;-83
2021/09/11 09:22:41;;;;;;;2.72;1.92;;;;;;;25.92;35.26;94916.53;4947135;29;19914;-83
2021/09/11 09:25:22;;;;;;;3.47;1.90;;;;;;;25.92;35.64;94907.75;4946761;29;20110;-83
2021/09/11 09:28:02;;;;;;;4.55;1.85;;;;;;;26.15;33.37;94912.53;4915987;29;20075;-83
2021/09/11 09:30:41;;;;;;;2.47;1.80;;;;;;;25.63;33.31;94910.97;4947944;29;20032;-83
2021/09/11 09:33:08;;;;;;;2.63;1.30;;;;;;;26.38;29.68;94911.97;4930330;29;20057;-83
2021/09/11 09:35:34;;;;;;;6.25;1.60;;;;;;;25.84;31.57;94903.00;4947648;29;20547;-87
2021/09/11 09:38:06;;;;;;;4.00;1.90;;;;;;;25.62;31.68;94903.28;4915325;29;20023;-82
2021/09/11 09:40:46;;;;;;;3.03;1.77;;;;;;;25.10;28.40;94891.00;4915905;29;20035;-82
2021/09/11 09:43:12;;;;;;;;;;;;;;;24.88;28.21;94894.91;4947691;29;20501;-80
2021/09/11 09:45:37;;;;;;;2.20;1.85;;;;;;;24.49;30.29;94895.28;4946331;29;19915;-84
2021/09/11 09:48:10;;;;;;;3.15;1.58;;;;;;;25.93;30.06;94888.94;4948811;28;20035;-85
2021/09/11 09:50:40;;;;;;;2.10;1.60;;;;;;;26.07;30.10;94886.53;4934908;29;20027;-85
2021/09/11 09:53:06;;;;;;;3.40;1.67;;;;;;;25.81;29.08;94879.66;4935106;29;20031;-87
2021/09/11 09:55:32;;;;;;;4.13;1.67;;;;;;;25.74;30.35;94885.22;4935017;29;20038;-84
2021/09/11 09:57:58;;;;;;;2.08;1.30;;;;;;;25.39;29.74;94890.50;4950534;29;20027;-84
2021/09/11 10:00:26;;;;;;;2.25;1.58;;;;;;;26.31;27.56;94895.53;4934313;28;20114;-80
2021/09/11 10:02:52;;;;;;;2.55;1.75;;;;;;;26.21;27.98;94882.25;4933442;29;20269;-82
2021/09/11 10:05:19;;;;;;;3.40;1.60;;;;;;;26.29;28.88;94859.66;4950602;29;20504;-85
2021/09/11 10:08:00;;;;;;;4.57;1.50;;;;;;;27.04;29.00;94883.28;4933932;29;20125;-84
2021/09/11 10:10:39;;;;;;;1.63;1.52;;;;;;;25.99;24.80;94869.28;4932338;29;20074;-85
2021/09/11 10:13:15;;;;;;;2.37;1.30;;;;;;;25.95;27.66;94870.06;4931200;29;20044;-84
2021/09/11 10:15:53;;;;;;;3.08;1.42;;;;;;;26.80;27.57;94871.69;4931759;29;20043;-86
2021/09/11 10:18:42;;;;;;;3.05;1.67;;;;;;;26.62;26.07;94869.63;4947138;29;20099;-83
2021/09/11 10:21:17;;;;;;;1.40;1.25;;;;;;;26.99;27.27;94863.91;4951011;28;20044;-82
2021/09/11 10:23:54;;;;;;;2.10;1.25;;;;;;;27.19;27.64;94867.22;4965751;28;20027;-85
2021/09/11 10:26:45;;;;;;;3.20;1.52;;;;;;;26.38;28.92;94869.47;4966211;28;20035;-83
2021/09/11 10:29:33;;;;;;;1.70;1.60;;;;;;;26.09;26.68;94869.25;4950868;28;20512;-85
2021/09/11 10:32:12;;;;;;;2.83;1.70;;;;;;;25.84;26.28;94863.19;4951086;28;20542;-78
2021/09/11 10:34:59;;;;;;;2.95;1.70;;;;;;;25.90;29.27;94862.91;4951821;28;20397;-82
2021/09/11 10:37:38;;;;;;;1.60;1.50;;;;;;;26.04;28.30;94871.91;4950375;28;20035;-83
2021/09/11 10:40:21;;;;;;;2.25;1.80;;;;;;;26.48;31.46;94868.63;4951384;28;20094;-86
2021/09/11 10:43:04;;;;;;;1.73;1.20;;;;;;;26.07;26.94;94862.63;4950564;29;20467;-85
2021/09/11 10:46:00;;;;;;;1.77;1.50;;;;;;;26.02;28.60;94863.41;4965491;28;20429;-83
2021/09/11 10:48:48;;;;;;;1.95;1.45;;;;;;;25.83;29.33;94865.03;4965431;28;20473;-85
2021/09/11 10:51:16;;;;;;;3.85;1.60;;;;;;;26.72;29.48;94853.63;4949683;28;20109;-86
2021/09/11 10:53:58;;;;;;;2.80;1.50;;;;;;;27.01;28.02;94851.09;4965959;28;20035;-84
2021/09/11 10:56:31;;;;;;;3.15;1.00;;;;;;;27.02;26.56;94839.41;4949436;29;20263;-84
2021/09/11 10:59:15;;;;;;;5.80;2.80;;;;;;;26.29;26.24;94833.91;4963483;28;20032;-84
2021/09/11 11:02:12;;;;;;;3.55;1.40;;;;;;;26.27;27.28;94841.31;4950286;28;20047;-83
2021/09/11 11:04:47;;;;;;;3.17;1.30;;;;;;;25.86;23.71;94821.22;4950620;29;20516;-84
2021/09/11 11:07:13;;;;;;;2.53;1.30;;;;;;;26.59;25.62;94833.75;4949376;29;20039;-83
2021/09/11 11:09:40;;;;;;;2.05;1.40;;;;;;;26.62;25.31;94830.56;4950499;29;20031;-85
2021/09/11 11:12:06;;;;;;;1.60;1.50;;;;;;;26.94;22.08;94816.84;4933201;29;20019;-82
2021/09/11 11:14:33;;;;;;;2.97;1.75;;;;;;;26.42;20.52;94817.38;4949542;29;20528;-82
2021/09/11 11:16:58;;;;;;;1.67;1.20;;;;;;;25.96;20.01;94807.94;4950144;29;20027;-83
2021/09/11 11:19:25;;;;;;;1.30;1.00;;;;;;;26.06;18.70;94807.91;4933560;29;20520;-84
2021/09/11 11:22:08;;;;;;;2.65;1.40;;;;;;;25.85;21.78;94803.75;4931607;29;20035;-83
2021/09/11 11:24:35;;;;;;;2.38;1.10;;;;;;;26.49;20.05;94796.59;4931562;29;20105;-84
2021/09/11 11:27:06;;;;;;;3.17;0.98;;;;;;;25.96;19.90;94792.81;4949119;29;20026;-82
2021/09/11 11:29:32;;;;;;;3.03;1.20;;;;;;;25.67;19.74;94791.81;4964195;28;20023;-84
2021/09/11 11:31:57;;;;;;;1.33;1.23;;;;;;;25.67;18.34;94789.16;4932693;29;20031;-81
2021/09/11 11:34:23;;;;;;;2.13;1.20;;;;;;;25.95;22.25;94780.59;4932312;29;20030;-83
2021/09/11 11:36:49;;;;;;;2.70;1.23;;;;;;;26.60;20.96;94784.84;4917200;29;20054;-83
2021/09/11 11:39:35;;;;;;;2.53;1.27;;;;;;;26.51;20.97;94775.06;4932753;29;20043;-81
2021/09/11 11:42:12;;;;;;;1.30;1.20;;;;;;;26.23;21.11;94787.19;4932232;29;20030;-81
2021/09/11 11:44:39;;;;;;;1.55;1.27;;;;;;;26.42;21.06;94774.06;4948576;29;20475;-83
2021/09/11 11:47:12;;;;;;;2.33;1.30;;;;;;;25.93;20.22;94777.41;4932335;29;20035;-84
2021/09/11 11:49:38;;;;;;;3.28;1.58;;;;;;;25.63;20.12;94765.00;4949730;29;20023;-84
2021/09/11 11:52:09;;;;;;;1.40;1.30;;;;;;;25.98;20.58;94769.44;4931789;29;20048;-85
2021/09/11 11:54:35;;;;;;;3.15;1.38;;;;;;;25.57;20.27;94762.63;4948925;29;20122;-88
2021/09/11 11:57:09;;;;;;;1.75;1.38;;;;;;;26.07;20.59;94765.13;4965015;28;20049;-85
2021/09/11 11:59:34;;;;;;;1.73;1.30;;;;;;;25.86;20.54;94758.31;4932306;29;20114;-88
2021/09/11 12:02:15;;;;;;;3.47;1.52;;;;;;;26.20;19.99;94759.28;4940877;28;20224;-87
2021/09/11 12:04:40;;;;;;;1.73;1.15;;;;;;;26.45;21.73;94753.06;4962213;28;20670;-87
2021/09/11 12:07:07;;;;;;;1.40;1.30;;;;;;;26.72;21.70;94756.06;4948974;29;20086;-84
2021/09/11 12:09:32;;;;;;;2.33;1.45;;;;;;;26.80;23.13;94752.03;4947873;28;20103;-82
2021/09/11 12:12:11;;;;;;;3.42;1.30;;;;;;;26.56;23.49;94743.16;4948363;28;20030;-85
2021/09/11 12:14:37;;;;;;;;;;;;;;;26.84;20.42;94749.66;4963746;28;20114;-85
2021/09/11 12:17:02;;;;;;;1.42;1.05;;;;;;;26.39;20.50;94740.88;4964333;28;20016;-84
2021/09/11 12:19:28;;;;;;;2.35;1.77;;;;;;;26.76;21.99;94742.22;4964020;28;20059;-83
2021/09/11 12:21:53;;;;;;;2.75;1.63;;;;;;;26.23;20.19;94742.03;4944121;29;20046;-79
2021/09/11 12:24:26;;;;;;;1.70;1.15;;;;;;;26.29;21.06;94738.28;4944753;28;20103;-82
2021/09/11 12:26:52;;;;;;;2.15;1.08;;;;;;;26.43;20.93;94733.91;4928479;29;20040;-83
2021/09/11 12:29:19;;;;;;;2.47;1.42;;;;;;;25.94;19.92;94736.53;4913550;29;20051;-85
2021/09/11 12:31:54;;;;;;;3.50;1.50;;;;;;;26.34;21.08;94724.94;4930063;29;20527;-81
2021/09/11 12:34:20;;;;;;;1.90;1.42;;;;;;;26.51;23.25;94729.91;4912382;29;20028;-83
2021/09/11 12:36:47;;;;;;;1.40;1.30;;;;;;;26.42;22.84;94720.94;4912626;29;20034;-85
2021/09/11 12:39:15;;;;;;;1.38;1.27;;;;;;;26.53;21.96;94725.91;4928077;29;20034;-83
2021/09/11 12:41:44;;;;;;;1.33;1.20;;;;;;;26.62;21.46;94718.13;4944332;29;20125;-83
2021/09/11 12:44:11;;;;;;;1.50;1.40;;;;;;;26.29;23.23;94708.25;4912798;29;20041;-80
2021/09/11 12:46:44;;;;;;;1.25;1.15;;;;;;;26.52;22.50;94704.94;4928248;29;20271;-85
2021/09/11 12:49:10;;;;;;;1.95;1.35;;;;;;;26.54;21.49;94705.44;4913401;29;20028;-83
2021/09/11 12:51:37;;;;;;;1.50;1.40;;;;;;;26.33;21.98;94699.44;4920750;29;20130;-81
2021/09/11 12:54:03;;;;;;;1.35;1.25;;;;;;;26.18;21.16;94699.53;4947187;29;20035;-80
2021/09/11 12:56:28;;;;;;;1.58;1.20;;;;;;;26.17;21.47;94698.72;4947109;29;20050;-83
2021/09/11 12:58:57;;;;;;;2.35;1.33;;;;;;;26.26;21.07;94692.84;4930295;29;20058;-83
2021/09/11 13:01:23;;;;;;;3.33;1.50;;;;;;;26.50;20.54;94701.72;4943710;28;20043;-81
2021/09/11 13:03:49;;;;;;;1.13;1.02;;;;;;;26.51;22.19;94693.50;4899774;29;20039;-82
2021/09/11 13:06:15;;;;;;;1.63;1.42;;;;;;;26.08;23.29;94688.94;4915789;29;20038;-83
2021/09/11 13:08:42;;;;;;;2.90;1.42;;;;;;;26.09;21.31;94693.19;4891166;29;20031;-83
2021/09/11 13:11:09;;;;;;;1.40;1.30;;;;;;;26.46;21.06;94679.44;4915997;29;20039;-83
2021/09/11 13:13:35;;;;;;;2.08;1.85;;;;;;;25.70;20.39;94677.16;4915412;29;20629;-84
2021/09/11 13:16:00;;;;;;;1.75;1.30;;;;;;;26.45;22.34;94677.88;4915800;29;20484;-82
2021/09/11 13:18:25;;;;;;;2.10;1.52;;;;;;;26.58;22.30;94675.38;4944247;29;20039;-81
2021/09/11 13:20:52;;;;;;;2.17;1.20;;;;;;;26.14;21.89;94677.22;4911318;29;20486;-81
2021/09/11 13:23:18;;;;;;;1.65;1.30;;;;;;;26.24;22.37;94674.53;4928892;29;20132;-83
2021/09/11 13:25:43;;;;;;;2.25;1.67;;;;;;;25.97;22.02;94679.44;4927534;29;20043;-83
2021/09/11 13:28:09;;;;;;;3.03;1.60;;;;;;;26.16;22.93;94673.25;4912127;29;20032;-83
2021/09/11 13:30:35;;;;;;;3.33;1.63;;;;;;;26.27;23.07;94671.31;4911744;29;20055;-87
2021/09/11 13:33:00;;;;;;;2.65;1.50;;;;;;;26.24;24.27;94671.06;4912245;29;20110;-86
2021/09/11 13:35:26;;;;;;;1.40;1.30;;;;;;;26.09;22.91;94667.44;4911966;29;20028;-85
2021/09/11 13:37:51;;;;;;;2.40;1.50;;;;;;;26.44;24.59;94665.63;4912200;29;20324;-85
2021/09/11 13:40:17;;;;;;;1.48;1.38;;;;;;;26.34;23.39;94671.81;4946916;29;20032;-84
2021/09/11 13:42:42;;;;;;;1.52;1.40;;;;;;;26.10;25.20;94669.00;4948315;29;20031;-80
2021/09/11 13:45:08;;;;;;;1.80;1.55;;;;;;;25.98;25.33;94662.41;4930923;29;20108;-85
2021/09/11 13:47:34;;;;;;;3.85;1.70;;;;;;;26.01;25.64;94659.22;4898971;29;20082;-83
2021/09/11 13:49:59;;;;;;;4.40;1.30;;;;;;;26.26;25.71;94668.97;4930784;29;20027;-80
2021/09/11 13:52:26;;;;;;;2.90;1.35;;;;;;;26.11;25.17;94662.63;4947348;29;20024;-79
2021/09/11 13:54:51;;;;;;;2.65;1.40;;;;;;;25.87;24.92;94650.28;4930465;29;20521;-83
2021/09/11 13:57:17;;;;;;;2.88;1.70;;;;;;;25.90;25.55;94655.03;4930486;29;20023;-82
2021/09/11 13:59:42;;;;;;;5.57;1.42;;;;;;;25.93;25.56;94660.59;4930621;28;20038;-83
2021/09/11 14:02:08;;;;;;;4.32;1.58;;;;;;;25.94;25.17;94654.25;4930090;29;20047;-82
2021/09/11 14:04:33;;;;;;;3.58;3.15;;;;;;;25.93;24.44;94659.81;4947776;29;20031;-80
2021/09/11 14:06:59;;;;;;;2.00;1.80;;;;;;;25.68;23.95;94653.56;4914611;29;20032;-82
2021/09/11 14:09:24;;;;;;;5.38;1.75;;;;;;;25.94;24.75;94664.06;4913363;29;20035;-86
2021/09/11 14:11:50;;;;;;;2.38;1.70;;;;;;;25.81;25.68;94662.00;4897139;29;20059;-84
2021/09/11 14:14:15;;;;;;;1.85;1.70;;;;;;;25.75;25.69;94663.09;4909157;29;20044;-83
2021/09/11 14:16:41;;;;;;;2.95;1.65;;;;;;;25.58;25.23;94658.09;4908804;29;20039;-83
2021/09/11 14:19:06;;;;;;;1.80;1.50;;;;;;;25.56;25.60;94655.72;4892417;29;20035;-83
2021/09/11 14:21:32;;;;;;;2.47;1.45;;;;;;;25.62;25.05;94664.47;4894564;29;20042;-83
2021/09/11 14:23:58;;;;;;;3.00;1.60;;;;;;;25.58;25.16;94663.41;4896109;29;20027;-84
2021/09/11 14:26:23;;;;;;;1.50;1.40;;;;;;;25.58;25.65;94660.75;4911397;29;20039;-84
2021/09/11 14:28:48;;;;;;;2.08;1.58;;;;;;;25.64;26.67;94651.72;4925115;29;20036;-86
2021/09/11 14:31:14;;;;;;;3.05;1.83;;;;;;;25.51;26.54;94653.09;4929347;29;20086;-85
2021/09/11 14:33:40;;;;;;;1.60;1.50;;;;;;;25.45;26.77;94654.13;4931729;29;20031;-83
2021/09/11 14:36:05;;;;;;;3.13;2.40;;;;;;;25.27;26.67;94653.94;4933538;29;20493;-83
2021/09/11 14:38:31;;;;;;;3.45;1.50;;;;;;;25.28;27.68;94652.84;4951072;29;20437;-82
2021/09/11 14:40:56;;;;;;;1.55;1.45;;;;;;;25.23;27.69;94653.66;4916315;29;20034;-84
2021/09/11 14:43:21;;;;;;;2.53;1.48;;;;;;;25.28;27.68;94661.59;4910679;29;20040;-81
2021/09/11 14:45:47;;;;;;;1.60;1.50;;;;;;;25.13;26.61;94656.34;4907331;29;20036;-83
2021/09/11 14:48:12;;;;;;;2.53;1.75;;;;;;;25.18;27.36;94661.63;4913266;29;20028;-84
2021/09/11 14:50:38;;;;;;;3.08;1.70;;;;;;;25.20;28.04;94651.56;4932387;29;20027;-80
2021/09/11 14:53:03;;;;;;;1.50;1.20;;;;;;;25.10;28.94;94654.22;4914636;29;20213;-81
2021/09/11 14:55:29;;;;;;;3.05;1.15;;;;;;;24.95;27.80;94646.28;4916892;29;20039;-83
2021/09/11 14:57:55;;;;;;;2.70;2.38;;;;;;;24.93;27.87;94645.75;4914101;29;20098;-82
2021/09/11 15:00:20;;;;;;;8.70;3.60;;;;;;;24.82;27.99;94649.50;4898129;29;20027;-82
2021/09/11 15:02:46;;;;;;;2.45;1.60;;;;;;;24.78;28.49;94648.41;4945133;29;20047;-82
2021/09/11 15:05:11;;;;;;;2.15;1.60;;;;;;;24.66;28.80;94646.81;4932851;29;20042;-84
2021/09/11 15:07:36;;;;;;;2.83;1.58;;;;;;;24.67;29.04;94648.41;4950878;29;20475;-81
2021/09/11 15:10:03;;;;;;;3.25;1.48;;;;;;;24.58;29.23;94646.56;4948292;29;20028;-82
2021/09/11 15:12:28;;;;;;;1.73;1.58;;;;;;;24.54;29.36;94633.03;4944287;29;20115;-85
2021/09/11 15:14:54;;;;;;;2.75;1.40;;;;;;;24.37;29.70;94644.97;4943463;29;20072;-82
2021/09/11 15:17:20;;;;;;;3.67;1.45;;;;;;;24.47;29.50;94652.91;4949079;29;20020;-84
2021/09/11 15:19:45;;;;;;;2.35;1.92;;;;;;;24.37;30.10;94645.72;4949271;29;20485;-82
2021/09/11 15:22:16;;;;;;;1.40;1.30;;;;;;;24.23;30.19;94644.69;4949900;28;20027;-82
2021/09/11 15:24:43;;;;;;;3.88;3.15;;;;;;;24.11;30.20;94644.09;4949346;29;20019;-82
2021/09/11 15:27:10;;;;;;;8.63;2.40;;;;;;;24.13;30.60;94637.50;4964370;28;20046;-81
2021/09/11 15:29:35;;;;;;;3.78;1.55;;;;;;;24.06;31.56;94649.38;4964809;28;20035;-82
2021/09/11 15:32:01;;;;;;;2.70;1.65;;;;;;;24.00;30.86;94653.06;4947615;28;20065;-83
2021/09/11 15:34:27;;;;;;;3.25;1.60;;;;;;;23.99;31.69;94656.75;4950356;28;20031;-80
2021/09/11 15:36:55;;;;;;;2.85;1.33;;;;;;;23.88;31.64;94655.16;4949958;28;20034;-85
2021/09/11 15:39:21;;;;;;;2.65;1.50;;;;;;;23.82;32.16;94653.56;4964846;28;20035;-86
2021/09/11 15:41:47;;;;;;;1.65;1.50;;;;;;;23.75;32.73;94659.09;4950443;28;20031;-86
2021/09/11 15:44:14;;;;;;;5.97;2.33;;;;;;;23.58;33.03;94650.56;4948307;29;20023;-83
2021/09/11 15:46:43;;;;;;;2.67;1.73;;;;;;;23.45;33.14;94648.38;4932543;29;20031;-83
2021/09/11 15:49:08;;;;;;;7.67;1.70;;;;;;;23.30;33.48;94646.44;4949287;28;20094;-82
2021/09/11 15:51:34;;;;;;;3.38;1.63;;;;;;;23.12;34.16;94654.00;4932097;29;20468;-84
2021/09/11 15:53:59;;;;;;;5.40;1.73;;;;;;;23.06;34.11;94667.19;4932015;29;20031;-84
2021/09/11 15:56:25;;;;;;;1.73;1.30;;;;;;;22.94;34.02;94663.13;4948199;29;20326;-83
2021/09/11 15:58:50;;;;;;;4.80;1.55;;;;;;;22.74;33.84;94655.84;4932161;29;20066;-83
2021/09/11 16:01:17;;;;;;;2.58;1.35;;;;;;;22.58;34.88;94668.13;4947938;29;20050;-83
2021/09/11 16:03:43;;;;;;;2.22;1.60;;;;;;;22.45;35.41;94668.53;4913173;29;20027;-84
2021/09/11 16:06:09;;;;;;;4.53;1.70;;;;;;;22.20;36.10;94676.22;4944691;29;20433;-84
2021/09/11 16:08:35;;;;;;;2.03;1.90;;;;;;;21.99;36.93;94669.16;4930376;29;20081;-84
2021/09/11 16:11:00;;;;;;;2.25;1.75;;;;;;;21.90;36.33;94675.91;4944504;29;20470;-85
2021/09/11 16:13:26;;;;;;;2.90;1.50;;;;;;;21.72;37.51;94682.28;4929171;29;20028;-84
2021/09/11 16:15:52;;;;;;;2.40;1.63;;;;;;;21.65;36.39;94679.03;4929136;29;20173;-84
2021/09/11 16:18:18;;;;;;;2.47;1.50;;;;;;;21.51;36.71;94673.31;4929004;29;20108;-84
2021/09/11 16:20:44;;;;;;;2.72;1.40;;;;;;;21.45;37.41;94681.41;4944871;29;20500;-85
2021/09/11 16:23:09;;;;;;;4.10;1.90;;;;;;;21.31;39.35;94680.19;4930401;29;20039;-86
2021/09/11 16:25:35;;;;;;;3.55;2.10;;;;;;;20.88;41.50;94689.53;4945332;29;20552;-87
2021/09/11 16:28:00;;;;;;;7.00;1.73;;;;;;;20.49;42.44;94685.22;4930301;29;20471;-87
2021/09/11 16:30:26;;;;;;;3.65;1.90;;;;;;;20.29;43.21;94690.19;4945294;28;20573;-86
2021/09/11 16:32:51;;;;;;;3.72;2.25;;;;;;;20.24;42.39;94688.22;4964111;28;20031;-85
2021/09/11 16:35:17;;;;;;;4.45;2.00;;;;;;;20.29;42.92;94695.44;4964310;28;20157;-84
2021/09/11 16:37:44;;;;;;;3.45;1.48;;;;;;;20.29;41.98;94690.19;4947817;29;20098;-84